createdAt,value
2023-03-02T00:02:03.487Z,-2.67
2023-03-02T00:04:37.430Z,-3.07
2023-03-02T00:07:12.850Z,-3.07
2023-03-02T00:09:43.314Z,-3.25
2023-03-02T00:12:13.145Z,-2.96
2023-03-02T00:14:41.801Z,-2.88
2023-03-02T00:17:10.747Z,-2.96
2023-03-02T00:19:39.365Z,-3.02
2023-03-02T00:22:10.211Z,-3.11
2023-03-02T00:24:39.687Z,-3.36
2023-03-02T00:27:08.264Z,-3.10
2023-03-02T00:29:36.855Z,-3.18
2023-03-02T00:32:05.119Z,-2.76
2023-03-02T00:34:33.505Z,-3.18
2023-03-02T00:37:01.651Z,-3.34
2023-03-02T00:39:31.547Z,-3.39
2023-03-02T00:42:00.112Z,-3.29
2023-03-02T00:44:28.281Z,-3.03
2023-03-02T00:46:56.868Z,-2.83
2023-03-02T00:49:25.266Z,-2.84
2023-03-02T00:51:53.829Z,-3.24
2023-03-02T00:54:22.064Z,-3.12
2023-03-02T00:56:51.914Z,-2.93
2023-03-02T00:59:30.932Z,-2.98
2023-03-02T01:02:22.993Z,-2.51
2023-03-02T01:04:53.332Z,-2.74
2023-03-02T01:07:22.529Z,-2.80
2023-03-02T01:09:51.125Z,-2.98
2023-03-02T01:12:21.117Z,-2.96
2023-03-02T01:14:51.536Z,-2.99
2023-03-02T01:17:23.212Z,-3.12
2023-03-02T01:19:51.775Z,-3.03
2023-03-02T01:22:21.661Z,-3.21
2023-03-02T01:24:50.451Z,-2.85
2023-03-02T01:27:20.775Z,-2.96
2023-03-02T01:29:50.874Z,-3.03
2023-03-02T01:32:21.007Z,-3.01
2023-03-02T01:34:49.884Z,-2.84
2023-03-02T01:37:18.439Z,-3.02
2023-03-02T01:39:46.952Z,-2.98
2023-03-02T01:42:15.637Z,-2.83
2023-03-02T01:44:47.698Z,-3.01
2023-03-02T01:47:23.499Z,-2.75
2023-03-02T01:50:13.269Z,-2.91
2023-03-02T01:52:42.200Z,-2.91
2023-03-02T01:55:14.282Z,-2.77
2023-03-02T01:57:47.639Z,-3.06
2023-03-02T02:00:23.115Z,-2.93
2023-03-02T02:02:52.813Z,-2.85
2023-03-02T02:05:27.338Z,-2.51
2023-03-02T02:07:56.131Z,-3.14
2023-03-02T02:10:24.489Z,-3.07
2023-03-02T02:12:52.711Z,-2.74
2023-03-02T02:15:22.718Z,-2.78
2023-03-02T02:17:54.487Z,-2.76
2023-03-02T02:20:34.179Z,-2.95
2023-03-02T02:23:15.948Z,-2.92
2023-03-02T02:25:58.354Z,-2.86
2023-03-02T02:28:32.785Z,-2.48
2023-03-02T02:31:07.919Z,-2.63
2023-03-02T02:33:38.583Z,-2.99
2023-03-02T02:36:10.930Z,-3.12
2023-03-02T02:38:42.232Z,-2.90
2023-03-02T02:41:18.764Z,-2.58
2023-03-02T02:43:47.697Z,-2.88
2023-03-02T02:46:16.852Z,-2.71
2023-03-02T02:48:46.710Z,-2.96
2023-03-02T02:51:17.970Z,-2.80
2023-03-02T02:53:51.833Z,-3.03
2023-03-02T02:56:22.607Z,-3.25
2023-03-02T02:58:54.750Z,-3.51
2023-03-02T03:01:26.290Z,-3.53
2023-03-02T03:03:58.302Z,-3.79
2023-03-02T03:06:30.719Z,-3.89
2023-03-02T03:09:02.099Z,-3.76
2023-03-02T03:11:41.672Z,-3.60
2023-03-02T03:14:12.698Z,-3.18
2023-03-02T03:16:43.230Z,-3.35
2023-03-02T03:19:18.613Z,-3.22
2023-03-02T03:21:50.126Z,-3.27
2023-03-02T03:24:19.901Z,-3.16
2023-03-02T03:26:51.245Z,-3.10
2023-03-02T03:29:23.808Z,-3.07
2023-03-02T03:31:54.101Z,-3.52
2023-03-02T03:34:24.534Z,-3.49
2023-03-02T03:36:53.971Z,-3.29
2023-03-02T03:39:23.309Z,-3.47
2023-03-02T03:41:56.352Z,-3.27
2023-03-02T03:44:25.414Z,-2.79
2023-03-02T03:46:54.121Z,-3.08
2023-03-02T03:49:23.132Z,-2.71
2023-03-02T03:51:51.761Z,-2.68
2023-03-02T03:54:21.020Z,-3.37
2023-03-02T03:56:51.596Z,-3.14
2023-03-02T03:59:24.606Z,-3.17
2023-03-02T04:01:59.430Z,-3.45
2023-03-02T04:04:33.799Z,-3.09
2023-03-02T04:07:05.313Z,-3.34
2023-03-02T04:09:38.009Z,-3.22
2023-03-02T04:12:10.300Z,-3.38
2023-03-02T04:14:42.203Z,-3.28
2023-03-02T04:17:10.920Z,-3.45
2023-03-02T04:19:43.378Z,-3.52
2023-03-02T04:22:12.020Z,-3.25
2023-03-02T04:24:40.208Z,-2.83
2023-03-02T04:27:09.617Z,-3.34
2023-03-02T04:29:39.171Z,-3.42
2023-03-02T04:32:10.099Z,-3.04
2023-03-02T04:34:40.588Z,-3.18
2023-03-02T04:37:09.448Z,-3.37
2023-03-02T04:39:38.103Z,-3.13
2023-03-02T04:42:09.527Z,-3.45
2023-03-02T04:44:38.187Z,-3.44
2023-03-02T04:47:06.404Z,-3.69
2023-03-02T04:49:36.357Z,-3.26
2023-03-02T04:52:05.634Z,-3.11
2023-03-02T04:54:34.440Z,-2.96
2023-03-02T04:57:02.964Z,-3.06
2023-03-02T04:59:31.085Z,-2.69
2023-03-02T05:02:01.715Z,-3.13
2023-03-02T05:04:30.876Z,-3.19
2023-03-02T05:07:00.966Z,-3.11
2023-03-02T05:09:31.060Z,-2.97
2023-03-02T05:12:01.723Z,-3.01
2023-03-02T05:14:32.719Z,-3.08
2023-03-02T05:17:01.486Z,-3.17
2023-03-02T05:19:30.042Z,-2.92
2023-03-02T05:21:58.648Z,-3.38
2023-03-02T05:24:28.341Z,-2.89
2023-03-02T05:26:56.901Z,-2.80
2023-03-02T05:29:25.399Z,-3.07
2023-03-02T05:31:53.803Z,-3.04
2023-03-02T05:34:21.954Z,-3.01
2023-03-02T05:36:50.490Z,-2.87
2023-03-02T05:39:18.682Z,-2.27
2023-03-02T05:41:48.708Z,-2.79
2023-03-02T05:44:17.209Z,-2.67
2023-03-02T05:46:45.476Z,-2.81
2023-03-02T05:49:14.005Z,-3.10
2023-03-02T05:51:42.210Z,-2.42
2023-03-02T05:54:10.703Z,-2.31
2023-03-02T05:56:38.875Z,-1.97
2023-03-02T05:59:08.819Z,-2.26
2023-03-02T06:01:37.377Z,-2.26
2023-03-02T06:04:05.586Z,-2.38
2023-03-02T06:06:34.398Z,-2.37
2023-03-02T06:09:02.938Z,-2.20
2023-03-02T06:11:31.569Z,-2.01
2023-03-02T06:13:59.958Z,-2.26
2023-03-02T06:16:29.532Z,-1.92
2023-03-02T06:18:57.872Z,-1.96
2023-03-02T06:21:26.050Z,-1.64
2023-03-02T06:23:54.157Z,-1.95
2023-03-02T06:26:22.372Z,-1.89
2023-03-02T06:28:53.225Z,-1.30
2023-03-02T06:31:22.368Z,-1.90
2023-03-02T06:33:52.683Z,-0.99
2023-03-02T06:36:21.011Z,-0.86
2023-03-02T06:38:49.145Z,-1.41
2023-03-02T06:41:18.195Z,-1.75
2023-03-02T06:43:46.443Z,-1.09
2023-03-02T06:46:15.402Z,-0.85
2023-03-02T06:48:43.493Z,-1.68
2023-03-02T06:51:13.423Z,-1.82
2023-03-02T06:53:41.544Z,-1.86
2023-03-02T06:56:10.623Z,-1.52
2023-03-02T06:58:41.699Z,-1.58
2023-03-02T07:01:10.231Z,-1.70
2023-03-02T07:03:38.420Z,-1.85
2023-03-02T07:06:06.957Z,-1.60
2023-03-02T07:08:37.309Z,-1.61
2023-03-02T07:11:09.471Z,-1.70
2023-03-02T07:13:38.171Z,-0.74
2023-03-02T07:16:10.335Z,-1.50
2023-03-02T07:18:39.136Z,-0.64
2023-03-02T07:21:07.874Z,-0.72
2023-03-02T07:23:37.489Z,-0.48
2023-03-02T07:26:08.701Z,0.27
2023-03-02T07:28:39.576Z,-0.50
2023-03-02T07:31:07.975Z,-1.13
2023-03-02T07:33:36.647Z,-1.15
2023-03-02T07:36:05.227Z,-0.97
2023-03-02T07:38:33.629Z,-0.92
2023-03-02T07:41:07.348Z,-0.38
2023-03-02T07:43:36.768Z,-0.98
2023-03-02T07:46:05.721Z,-1.23
2023-03-02T07:48:34.532Z,-0.93
2023-03-02T07:51:03.164Z,-1.66
2023-03-02T07:53:31.603Z,-0.59
2023-03-02T07:56:01.580Z,-1.28
2023-03-02T07:58:31.328Z,-0.90
2023-03-02T08:00:59.659Z,-1.59
2023-03-02T08:03:27.833Z,-1.11
2023-03-02T08:05:56.402Z,-1.47
2023-03-02T08:08:24.772Z,-0.90
2023-03-02T08:10:53.048Z,-1.01
2023-03-02T08:13:21.265Z,-0.60
2023-03-02T08:15:50.984Z,0.34
2023-03-02T08:18:19.469Z,0.00
2023-03-02T08:20:47.606Z,-0.92
2023-03-02T08:23:15.839Z,-0.54
2023-03-02T08:25:44.001Z,0.34
2023-03-02T08:28:12.188Z,-0.29
2023-03-02T08:30:40.291Z,-1.37
2023-03-02T08:33:09.884Z,-0.66
2023-03-02T08:35:37.997Z,-0.64
2023-03-02T08:38:06.260Z,-0.77
2023-03-02T08:40:34.979Z,-0.21
2023-03-02T08:43:03.151Z,-0.80
2023-03-02T08:45:31.230Z,-0.53
2023-03-02T08:47:59.541Z,-0.96
2023-03-02T08:50:29.193Z,-1.04
2023-03-02T08:52:57.347Z,-0.96
2023-03-02T08:55:28.547Z,-0.20
2023-03-02T08:58:00.158Z,-0.98
2023-03-02T09:00:30.073Z,-0.49
2023-03-02T09:02:59.826Z,-0.32
2023-03-02T09:05:29.462Z,-0.84
2023-03-02T09:07:57.540Z,-0.53
2023-03-02T09:10:25.624Z,-0.49
2023-03-02T09:12:53.986Z,-0.80
2023-03-02T09:15:22.138Z,-0.62
2023-03-02T09:17:50.339Z,-0.55
2023-03-02T09:20:18.575Z,-0.04
2023-03-02T09:22:50.898Z,-1.03
2023-03-02T09:25:21.008Z,-0.07
2023-03-02T09:27:49.409Z,0.80
2023-03-02T09:30:17.757Z,0.81
2023-03-02T09:32:46.171Z,-0.17
2023-03-02T09:35:14.502Z,0.50
2023-03-02T09:37:44.344Z,-0.39
2023-03-02T09:40:17.710Z,-0.07
2023-03-02T09:43:14.247Z,-0.06
2023-03-02T09:45:55.942Z,0.09
2023-03-02T09:48:30.042Z,-0.44
2023-03-02T09:51:03.512Z,0.23
2023-03-02T09:53:44.289Z,-0.26
2023-03-02T09:56:17.009Z,0.00
2023-03-02T09:58:49.524Z,0.36
2023-03-02T10:01:22.569Z,-0.16
2023-03-02T10:03:56.454Z,0.26
2023-03-02T10:06:25.164Z,0.69
2023-03-02T10:08:53.882Z,1.30
2023-03-02T10:11:31.002Z,0.55
2023-03-02T10:14:04.665Z,1.66
2023-03-02T10:16:36.866Z,1.07
2023-03-02T10:19:22.431Z,-0.12
2023-03-02T10:21:53.074Z,-0.21
2023-03-02T10:24:26.982Z,0.44
2023-03-02T10:27:00.554Z,0.97
2023-03-02T10:29:34.759Z,0.35
2023-03-02T10:32:05.722Z,-0.27
2023-03-02T10:34:37.240Z,0.35
2023-03-02T10:37:12.831Z,1.47
2023-03-02T10:39:41.018Z,1.36
2023-03-02T10:42:14.815Z,1.22
2023-03-02T10:44:46.905Z,1.09
2023-03-02T10:47:25.051Z,1.50
2023-03-02T10:49:53.911Z,0.37
2023-03-02T10:52:23.283Z,0.17
2023-03-02T10:54:52.936Z,1.74
2023-03-02T10:57:29.700Z,1.47
2023-03-02T11:00:01.252Z,1.78
2023-03-02T11:02:31.021Z,1.06
2023-03-02T11:05:00.563Z,1.42
2023-03-02T11:07:30.058Z,1.03
2023-03-02T11:09:58.994Z,0.52
2023-03-02T11:12:29.119Z,0.44
2023-03-02T11:15:16.090Z,1.40
2023-03-02T11:17:44.918Z,2.19
2023-03-02T11:20:16.996Z,2.44
2023-03-02T11:22:48.810Z,1.89
2023-03-02T11:25:21.605Z,2.47
2023-03-02T11:27:52.771Z,2.67
2023-03-02T11:30:24.892Z,2.67
2023-03-02T11:32:55.651Z,2.68
2023-03-02T11:35:30.561Z,3.31
2023-03-02T11:38:03.808Z,2.79
2023-03-02T11:40:32.827Z,2.07
2023-03-02T11:43:04.961Z,2.19
2023-03-02T11:45:34.647Z,2.19
2023-03-02T11:48:06.294Z,3.51
2023-03-02T11:50:35.955Z,2.67
2023-03-02T11:53:06.535Z,2.09
2023-03-02T11:55:37.500Z,1.59
2023-03-02T11:58:07.542Z,2.49
2023-03-02T12:00:37.150Z,1.66
2023-03-02T12:03:06.546Z,2.25
2023-03-02T12:05:36.507Z,1.73
2023-03-02T12:08:06.002Z,2.02
2023-03-02T12:10:36.666Z,1.01
2023-03-02T12:13:15.143Z,0.90
2023-03-02T12:15:44.465Z,2.02
2023-03-02T12:18:30.855Z,0.56
2023-03-02T12:21:03.218Z,0.79
2023-03-02T12:23:32.523Z,1.14
2023-03-02T12:26:06.014Z,0.89
2023-03-02T12:28:37.149Z,1.51
2023-03-02T12:31:07.459Z,0.41
2023-03-02T12:33:40.562Z,1.33
2023-03-02T12:36:13.542Z,1.49
2023-03-02T12:38:46.836Z,1.47
2023-03-02T12:41:22.550Z,1.42
2023-03-02T12:43:59.876Z,1.04
2023-03-02T12:46:33.597Z,1.77
2023-03-02T12:49:19.641Z,1.87
2023-03-02T12:51:50.519Z,1.07
2023-03-02T12:54:19.472Z,1.70
2023-03-02T12:56:48.076Z,2.07
2023-03-02T12:59:25.085Z,1.77
2023-03-02T13:01:53.699Z,2.08
2023-03-02T13:04:23.149Z,2.12
2023-03-02T13:06:52.098Z,1.73
2023-03-02T13:09:21.018Z,2.27
2023-03-02T13:11:54.952Z,1.37
2023-03-02T13:14:27.260Z,1.39
2023-03-02T13:16:57.473Z,1.55
2023-03-02T13:19:26.246Z,1.48
2023-03-02T13:21:54.915Z,1.78
2023-03-02T13:24:44.394Z,1.60
2023-03-02T13:27:17.188Z,1.46
2023-03-02T13:29:47.141Z,1.32
2023-03-02T13:32:16.976Z,1.92
2023-03-02T13:34:50.476Z,1.83
2023-03-02T13:37:33.611Z,1.71
2023-03-02T13:40:03.136Z,1.47
2023-03-02T13:42:45.928Z,1.61
2023-03-02T13:45:45.544Z,1.96
2023-03-02T13:48:16.816Z,1.40
2023-03-02T13:50:52.356Z,0.78
2023-03-02T13:53:21.174Z,0.40
2023-03-02T13:55:50.115Z,0.13
2023-03-02T13:58:20.539Z,0.45
2023-03-02T14:00:53.505Z,0.19
2023-03-02T14:03:26.325Z,0.09
2023-03-02T14:05:55.529Z,0.65
2023-03-02T14:08:24.130Z,0.39
2023-03-02T14:10:53.683Z,0.02
2023-03-02T14:13:23.305Z,-0.05
2023-03-02T14:15:54.588Z,0.12
2023-03-02T14:18:37.650Z,-0.23
2023-03-02T14:21:06.619Z,0.15
2023-03-02T14:23:39.899Z,0.45
2023-03-02T14:26:18.639Z,0.35
2023-03-02T14:28:51.099Z,0.74
2023-03-02T14:31:24.803Z,0.64
2023-03-02T14:33:57.771Z,0.62
2023-03-02T14:36:30.504Z,0.01
2023-03-02T14:39:01.033Z,0.83
2023-03-02T14:41:30.071Z,0.63
2023-03-02T14:43:58.958Z,0.72
2023-03-02T14:46:31.706Z,0.89
2023-03-02T14:48:59.919Z,1.22
2023-03-02T14:51:29.786Z,0.59
2023-03-02T14:54:02.416Z,0.54
2023-03-02T14:56:30.840Z,0.67
2023-03-02T14:58:59.947Z,0.26
2023-03-02T15:01:29.686Z,0.24
2023-03-02T15:03:57.758Z,0.21
2023-03-02T15:06:27.428Z,0.80
2023-03-02T15:08:56.045Z,0.72
2023-03-02T15:11:24.485Z,0.52
2023-03-02T15:13:52.672Z,0.91
2023-03-02T15:16:21.454Z,0.68
2023-03-02T15:18:51.746Z,-0.11
2023-03-02T15:21:21.449Z,0.36
2023-03-02T15:23:49.843Z,0.77
2023-03-02T15:26:18.084Z,0.76
2023-03-02T15:28:49.314Z,0.51
2023-03-02T15:31:18.453Z,0.47
2023-03-02T15:33:55.404Z,0.20
2023-03-02T15:36:35.105Z,0.26
2023-03-02T15:39:04.314Z,0.56
2023-03-02T15:41:32.849Z,0.63
2023-03-02T15:44:01.496Z,0.54
2023-03-02T15:46:32.236Z,0.48
2023-03-02T15:49:03.318Z,0.44
2023-03-02T15:51:31.637Z,0.30
2023-03-02T15:54:10.982Z,0.63
2023-03-02T15:56:44.405Z,0.50
2023-03-02T15:59:16.037Z,0.49
2023-03-02T16:01:44.467Z,0.45
2023-03-02T16:04:20.720Z,0.78
2023-03-02T16:06:49.054Z,0.80
2023-03-02T16:09:17.984Z,0.62
2023-03-02T16:11:46.372Z,0.81
2023-03-02T16:14:15.857Z,0.54
2023-03-02T16:16:44.513Z,-0.10
2023-03-02T16:19:13.722Z,0.33
2023-03-02T16:21:43.601Z,0.58
2023-03-02T16:24:13.254Z,0.58
2023-03-02T16:26:41.533Z,0.98
2023-03-02T16:29:19.387Z,0.85
2023-03-02T16:31:48.630Z,0.66
2023-03-02T16:34:17.658Z,0.87
2023-03-02T16:36:47.475Z,1.03
2023-03-02T16:39:17.398Z,0.69
2023-03-02T16:41:46.490Z,1.11
2023-03-02T16:44:16.258Z,1.09
2023-03-02T16:46:44.823Z,0.64
2023-03-02T16:49:13.547Z,0.73
2023-03-02T16:51:42.704Z,0.32
2023-03-02T16:54:16.042Z,0.80
2023-03-02T16:56:47.742Z,0.89
2023-03-02T16:59:16.508Z,1.04
2023-03-02T17:01:45.264Z,0.47
2023-03-02T17:04:18.599Z,0.64
2023-03-02T17:06:59.919Z,0.68
2023-03-02T17:09:31.534Z,0.75
2023-03-02T17:11:59.950Z,0.39
2023-03-02T17:14:28.699Z,0.65
2023-03-02T17:16:58.079Z,0.71
2023-03-02T17:19:27.273Z,1.09
2023-03-02T17:21:58.621Z,1.33
2023-03-02T17:24:27.216Z,1.60
2023-03-02T17:27:00.362Z,0.84
2023-03-02T17:29:29.002Z,0.92
2023-03-02T17:31:57.934Z,0.80
2023-03-02T17:34:30.765Z,1.46
2023-03-02T17:37:00.849Z,0.79
2023-03-02T17:39:29.623Z,0.58
2023-03-02T17:41:59.445Z,0.49
2023-03-02T17:44:27.871Z,0.47
2023-03-02T17:46:56.254Z,1.16
2023-03-02T17:49:24.715Z,0.30
2023-03-02T17:51:53.297Z,1.08
2023-03-02T17:54:21.672Z,0.61
2023-03-02T17:56:54.707Z,0.73
2023-03-02T17:59:26.233Z,0.08
2023-03-02T18:01:54.754Z,0.43
2023-03-02T18:04:23.587Z,0.85
2023-03-02T18:06:54.210Z,0.64
2023-03-02T18:09:22.842Z,0.58
2023-03-02T18:11:51.249Z,0.97
2023-03-02T18:14:21.329Z,1.24
2023-03-02T18:16:52.771Z,1.47
2023-03-02T18:19:22.224Z,0.80
2023-03-02T18:21:50.679Z,1.16
2023-03-02T18:24:18.921Z,0.73
2023-03-02T18:26:47.300Z,0.81
2023-03-02T18:29:15.842Z,0.45
2023-03-02T18:31:45.759Z,0.58
2023-03-02T18:34:15.764Z,0.78
2023-03-02T18:36:45.640Z,0.84
2023-03-02T18:39:14.250Z,0.69
2023-03-02T18:41:43.113Z,1.13
2023-03-02T18:44:11.572Z,1.27
2023-03-02T18:46:41.604Z,1.01
2023-03-02T18:49:10.067Z,0.58
2023-03-02T18:51:43.434Z,1.20
2023-03-02T18:54:13.514Z,1.59
2023-03-02T18:56:45.806Z,1.47
2023-03-02T18:59:18.295Z,1.34
2023-03-02T19:01:50.187Z,1.06
2023-03-02T19:04:19.883Z,1.75
2023-03-02T19:06:57.435Z,1.50
2023-03-02T19:09:26.233Z,1.44
2023-03-02T19:11:56.817Z,2.07
2023-03-02T19:14:25.798Z,1.87
2023-03-02T19:16:55.002Z,1.21
2023-03-02T19:19:24.877Z,1.48
2023-03-02T19:21:55.979Z,1.30
2023-03-02T19:24:25.104Z,1.49
2023-03-02T19:26:53.709Z,1.47
2023-03-02T19:29:23.673Z,0.80
2023-03-02T19:31:52.279Z,0.65
2023-03-02T19:34:21.373Z,0.80
2023-03-02T19:36:49.920Z,1.37
2023-03-02T19:39:19.853Z,1.32
2023-03-02T19:41:48.206Z,0.88
2023-03-02T19:44:16.722Z,0.23
2023-03-02T19:46:45.330Z,0.78
2023-03-02T19:49:13.932Z,0.62
2023-03-02T19:51:42.388Z,0.47
2023-03-02T19:54:10.982Z,0.66
2023-03-02T19:56:45.841Z,0.96
2023-03-02T19:59:14.405Z,0.83
2023-03-02T20:01:42.882Z,1.21
2023-03-02T20:04:10.986Z,1.55
2023-03-02T20:06:39.245Z,1.32
2023-03-02T20:09:08.340Z,1.20
2023-03-02T20:11:38.414Z,1.37
2023-03-02T20:14:08.074Z,1.64
2023-03-02T20:16:36.544Z,1.58
2023-03-02T20:19:04.810Z,1.49
2023-03-02T20:21:33.278Z,1.41
2023-03-02T20:24:01.790Z,1.65
2023-03-02T20:26:30.708Z,1.84
2023-03-02T20:29:01.356Z,1.29
2023-03-02T20:31:33.441Z,1.36
2023-03-02T20:34:02.395Z,1.45
2023-03-02T20:36:33.238Z,1.36
2023-03-02T20:39:06.782Z,1.60
2023-03-02T20:41:41.728Z,1.59
2023-03-02T20:44:11.845Z,2.25
2023-03-02T20:46:44.548Z,2.71
2023-03-02T20:49:15.320Z,2.87
2023-03-02T20:51:45.516Z,2.67
2023-03-02T20:54:13.892Z,2.73
2023-03-02T20:56:42.369Z,2.92
2023-03-02T20:59:10.581Z,3.20
2023-03-02T21:01:38.839Z,3.15
2023-03-02T21:04:08.573Z,2.83
2023-03-02T21:06:37.756Z,2.61
2023-03-02T21:09:08.609Z,2.89
2023-03-02T21:11:37.497Z,2.70
2023-03-02T21:14:05.884Z,2.53
2023-03-02T21:16:36.474Z,2.54
2023-03-02T21:19:04.767Z,2.56
2023-03-02T21:21:41.349Z,2.82
2023-03-02T21:24:11.115Z,2.44
2023-03-02T21:26:39.458Z,2.69
2023-03-02T21:29:07.955Z,2.56
2023-03-02T21:31:36.158Z,2.48
2023-03-02T21:34:04.712Z,2.78
2023-03-02T21:36:34.363Z,2.76
2023-03-02T21:39:03.035Z,2.84
2023-03-02T21:41:31.348Z,2.76
2023-03-02T21:43:59.762Z,2.97
2023-03-02T21:46:28.111Z,3.16
2023-03-02T21:48:56.639Z,3.33
2023-03-02T21:51:24.979Z,2.90
2023-03-02T21:53:54.688Z,2.82
2023-03-02T21:56:23.713Z,2.74
2023-03-02T21:58:52.909Z,2.74
2023-03-02T22:01:21.103Z,2.73
2023-03-02T22:03:50.132Z,2.97
2023-03-02T22:06:18.965Z,3.08
2023-03-02T22:08:47.257Z,3.15
2023-03-02T22:11:20.510Z,2.53
2023-03-02T22:13:49.443Z,2.73
2023-03-02T22:16:18.390Z,3.09
2023-03-02T22:18:47.279Z,2.75
2023-03-02T22:21:22.193Z,2.54
2023-03-02T22:23:50.494Z,2.54
2023-03-02T22:26:20.071Z,2.82
2023-03-02T22:28:48.332Z,2.35
2023-03-02T22:31:20.240Z,2.27
2023-03-02T22:33:48.846Z,2.36
2023-03-02T22:36:20.427Z,2.13
2023-03-02T22:38:48.904Z,2.26
2023-03-02T22:41:18.546Z,1.88
2023-03-02T22:43:49.656Z,1.71
2023-03-02T22:46:20.416Z,1.85
2023-03-02T22:48:49.862Z,1.60
2023-03-02T22:51:19.755Z,1.94
2023-03-02T22:53:49.412Z,2.02
2023-03-02T22:56:32.418Z,2.05
2023-03-02T22:59:04.981Z,2.20
2023-03-02T23:01:39.477Z,2.39
2023-03-02T23:04:14.693Z,1.96
2023-03-02T23:06:46.432Z,2.02
2023-03-02T23:09:17.078Z,1.77
2023-03-02T23:11:45.808Z,1.96
2023-03-02T23:14:19.553Z,2.13
2023-03-02T23:16:50.038Z,1.74
2023-03-02T23:19:18.298Z,1.33
2023-03-02T23:21:47.339Z,1.68
2023-03-02T23:24:15.639Z,1.28
2023-03-02T23:26:43.733Z,1.68
2023-03-02T23:29:12.026Z,1.36
2023-03-02T23:31:41.666Z,1.27
2023-03-02T23:34:09.784Z,1.24
2023-03-02T23:36:38.220Z,1.09
2023-03-02T23:39:06.829Z,1.03
2023-03-02T23:41:35.224Z,1.42
2023-03-02T23:44:03.560Z,1.71
2023-03-02T23:46:31.782Z,1.66
2023-03-02T23:49:01.381Z,1.44
2023-03-02T23:51:29.705Z,1.19
2023-03-02T23:53:58.003Z,1.32
2023-03-02T23:56:26.393Z,1.14
2023-03-02T23:58:54.603Z,1.29
